IGO234 VAPO-VABB
Flight info
| Callsign | IGO234 |
|---|---|
| Flight time | 0h 17m |
| Altitude | 12000 |
| Route | PPN W28 BBB |
| Aircraft | A21N/M-SDE3FGHIRWY/LB1 |
Departure
| Time | 2026-04-29 18:51 |
|---|---|
| Airport | Pune International Airport (VAPO) |
Arrival
| Time | 2026-04-29 19:08 |
|---|---|
| Airport | Chhatrapati Shivaji Maharaj International Airport (VABB) |
| Time | Latitude | Longitude | Altitude | Speed | Heading |
|---|---|---|---|---|---|
| 2026-04-29 18:35 | 18.58011 | 73.90843 | 1919 ft | 0 kts | 187° |
| 2026-04-29 18:42 | 18.58016 | 73.90844 | 1919 ft | 2 kts | 188° |
| 2026-04-29 18:42 | 18.58031 | 73.90846 | 1919 ft | 2 kts | 205° |
| 2026-04-29 18:42 | 18.58044 | 73.90855 | 1919 ft | 2 kts | 226° |
| 2026-04-29 18:42 | 18.58052 | 73.90868 | 1919 ft | 2 kts | 248° |
| 2026-04-29 18:43 | 18.58056 | 73.90884 | 1919 ft | 2 kts | 269° |
| 2026-04-29 18:43 | 18.58056 | 73.90892 | 1919 ft | 1 kts | 281° |
| 2026-04-29 18:43 | 18.58055 | 73.90896 | 1920 ft | 0 kts | 278° |
| 2026-04-29 18:45 | 18.58055 | 73.90894 | 1919 ft | 1 kts | 278° |
| 2026-04-29 18:46 | 18.58127 | 73.90956 | 1920 ft | 10 kts | 94° |
| 2026-04-29 18:46 | 18.58121 | 73.91048 | 1924 ft | 14 kts | 94° |
| 2026-04-29 18:46 | 18.58113 | 73.91173 | 1929 ft | 19 kts | 94° |
| 2026-04-29 18:47 | 18.58103 | 73.91338 | 1934 ft | 25 kts | 94° |
| 2026-04-29 18:47 | 18.58090 | 73.91542 | 1940 ft | 29 kts | 93° |
| 2026-04-29 18:47 | 18.58077 | 73.91757 | 1942 ft | 29 kts | 94° |
| 2026-04-29 18:47 | 18.58064 | 73.91976 | 1943 ft | 30 kts | 94° |
| 2026-04-29 18:48 | 18.58050 | 73.92198 | 1938 ft | 27 kts | 94° |
| 2026-04-29 18:48 | 18.58036 | 73.92410 | 1934 ft | 30 kts | 94° |
| 2026-04-29 18:48 | 18.58023 | 73.92621 | 1931 ft | 25 kts | 94° |
| 2026-04-29 18:48 | 18.58013 | 73.92785 | 1928 ft | 17 kts | 95° |
| 2026-04-29 18:49 | 18.58005 | 73.92917 | 1925 ft | 18 kts | 93° |
| 2026-04-29 18:49 | 18.58023 | 73.93002 | 1924 ft | 10 kts | 20° |
| 2026-04-29 18:49 | 18.58097 | 73.93008 | 1924 ft | 10 kts | 3° |
| 2026-04-29 18:49 | 18.58158 | 73.92970 | 1926 ft | 12 kts | 282° |
| 2026-04-29 18:50 | 18.58172 | 73.92780 | 1931 ft | 56 kts | 274° |
| 2026-04-29 18:50 | 18.58215 | 73.92124 | 1942 ft | 121 kts | 274° |
| 2026-04-29 18:50 | 18.58282 | 73.91031 | 1957 ft | 171 kts | 274° |
| 2026-04-29 18:50 | 18.58348 | 73.89764 | 2526 ft | 172 kts | 274° |
| 2026-04-29 18:51 | 18.58420 | 73.88520 | 3237 ft | 171 kts | 275° |
| 2026-04-29 18:51 | 18.58507 | 73.87259 | 3854 ft | 175 kts | 275° |
| 2026-04-29 18:51 | 18.58599 | 73.85925 | 4289 ft | 191 kts | 275° |
| 2026-04-29 18:51 | 18.58696 | 73.84467 | 4721 ft | 208 kts | 275° |
| 2026-04-29 18:52 | 18.58797 | 73.82900 | 5117 ft | 224 kts | 275° |
| 2026-04-29 18:52 | 18.58900 | 73.81203 | 5557 ft | 239 kts | 275° |
| 2026-04-29 18:52 | 18.59011 | 73.79363 | 5875 ft | 262 kts | 275° |
| 2026-04-29 18:52 | 18.59130 | 73.77394 | 6379 ft | 278 kts | 275° |
| 2026-04-29 18:53 | 18.59255 | 73.75351 | 7095 ft | 284 kts | 275° |
| 2026-04-29 18:53 | 18.59578 | 73.73305 | 7849 ft | 286 kts | 294° |
| 2026-04-29 18:53 | 18.60640 | 73.71542 | 8615 ft | 287 kts | 310° |
| 2026-04-29 18:53 | 18.61932 | 73.69955 | 9348 ft | 291 kts | 313° |
| 2026-04-29 18:54 | 18.63267 | 73.68346 | 10054 ft | 296 kts | 312° |
| 2026-04-29 18:54 | 18.64632 | 73.66650 | 10533 ft | 309 kts | 311° |
| 2026-04-29 18:54 | 18.66039 | 73.64849 | 10856 ft | 328 kts | 310° |
| 2026-04-29 18:54 | 18.67495 | 73.62948 | 11165 ft | 345 kts | 310° |
| 2026-04-29 18:55 | 18.69025 | 73.60925 | 11493 ft | 361 kts | 309° |
| 2026-04-29 18:55 | 18.70595 | 73.58831 | 11792 ft | 366 kts | 309° |
| 2026-04-29 18:55 | 18.72173 | 73.56716 | 11817 ft | 366 kts | 309° |
| 2026-04-29 18:55 | 18.73734 | 73.54620 | 11820 ft | 365 kts | 309° |
| 2026-04-29 18:56 | 18.75309 | 73.52502 | 11821 ft | 365 kts | 309° |
| 2026-04-29 18:56 | 18.76891 | 73.50375 | 11822 ft | 365 kts | 309° |
| 2026-04-29 18:56 | 18.78449 | 73.48281 | 11822 ft | 365 kts | 309° |
| 2026-04-29 18:56 | 18.79754 | 73.46525 | 11822 ft | 365 kts | 309° |
| 2026-04-29 18:57 | 18.81199 | 73.44579 | 11822 ft | 365 kts | 309° |
| 2026-04-29 18:57 | 18.82771 | 73.42464 | 11822 ft | 365 kts | 309° |
| 2026-04-29 18:57 | 18.84345 | 73.40344 | 11822 ft | 365 kts | 309° |
| 2026-04-29 18:57 | 18.85916 | 73.38228 | 11822 ft | 365 kts | 309° |
| 2026-04-29 18:58 | 18.87489 | 73.36109 | 11658 ft | 365 kts | 309° |
| 2026-04-29 18:58 | 18.89043 | 73.34014 | 11409 ft | 363 kts | 309° |
| 2026-04-29 18:58 | 18.90609 | 73.31902 | 11159 ft | 360 kts | 309° |
| 2026-04-29 18:58 | 18.92133 | 73.29847 | 10975 ft | 350 kts | 309° |
| 2026-04-29 18:59 | 18.93612 | 73.27850 | 10775 ft | 339 kts | 309° |
| 2026-04-29 18:59 | 18.95038 | 73.25923 | 10583 ft | 328 kts | 309° |
| 2026-04-29 18:59 | 18.96427 | 73.24046 | 10393 ft | 317 kts | 309° |
| 2026-04-29 18:59 | 18.97755 | 73.22252 | 10210 ft | 307 kts | 308° |
| 2026-04-29 19:00 | 18.99070 | 73.20473 | 10027 ft | 297 kts | 308° |
| 2026-04-29 19:00 | 19.00323 | 73.18778 | 9837 ft | 288 kts | 308° |
| 2026-04-29 19:00 | 19.01579 | 73.17204 | 9468 ft | 276 kts | 319° |
| 2026-04-29 19:00 | 19.03227 | 73.16200 | 8556 ft | 283 kts | 345° |
| 2026-04-29 19:01 | 19.05148 | 73.15812 | 7835 ft | 282 kts | 353° |
| 2026-04-29 19:01 | 19.07041 | 73.15594 | 7521 ft | 267 kts | 354° |
| 2026-04-29 19:01 | 19.08845 | 73.15414 | 7249 ft | 252 kts | 355° |
| 2026-04-29 19:01 | 19.10541 | 73.15251 | 6962 ft | 239 kts | 355° |
| 2026-04-29 19:02 | 19.12189 | 73.15093 | 6518 ft | 235 kts | 353° |
| 2026-04-29 19:02 | 19.13721 | 73.14588 | 5998 ft | 237 kts | 325° |
| 2026-04-29 19:02 | 19.14793 | 73.13313 | 5503 ft | 234 kts | 294° |
| 2026-04-29 19:02 | 19.15055 | 73.11638 | 5008 ft | 234 kts | 262° |
| 2026-04-29 19:03 | 19.14455 | 73.10067 | 4546 ft | 233 kts | 236° |
| 2026-04-29 19:03 | 19.13456 | 73.08719 | 4110 ft | 231 kts | 230° |
| 2026-04-29 19:03 | 19.12393 | 73.07445 | 3662 ft | 230 kts | 229° |
| 2026-04-29 19:03 | 19.11269 | 73.06250 | 3221 ft | 228 kts | 223° |
| 2026-04-29 19:04 | 19.10114 | 73.05168 | 3022 ft | 210 kts | 222° |
| 2026-04-29 19:04 | 19.09289 | 73.03992 | 2671 ft | 193 kts | 252° |
| 2026-04-29 19:04 | 19.09060 | 73.02678 | 2362 ft | 177 kts | 267° |
| 2026-04-29 19:04 | 19.09040 | 73.01417 | 2077 ft | 162 kts | 271° |
| 2026-04-29 19:05 | 19.09053 | 73.00287 | 1988 ft | 152 kts | 271° |
| 2026-04-29 19:05 | 19.09056 | 72.99144 | 1968 ft | 153 kts | 267° |
| 2026-04-29 19:05 | 19.09044 | 72.98015 | 1932 ft | 154 kts | 267° |
| 2026-04-29 19:05 | 19.09026 | 72.96872 | 1733 ft | 153 kts | 267° |
| 2026-04-29 19:06 | 19.09007 | 72.95753 | 1535 ft | 153 kts | 266° |
| 2026-04-29 19:06 | 19.08989 | 72.94629 | 1334 ft | 152 kts | 267° |
| 2026-04-29 19:06 | 19.08955 | 72.92390 | 933 ft | 151 kts | 267° |
| 2026-04-29 19:07 | 19.08940 | 72.91286 | 738 ft | 150 kts | 267° |
| 2026-04-29 19:07 | 19.08936 | 72.90543 | 592 ft | 150 kts | 268° |
| 2026-04-29 19:07 | 19.08917 | 72.89085 | 298 ft | 149 kts | 266° |
| 2026-04-29 19:07 | 19.08896 | 72.87997 | 119 ft | 148 kts | 266° |
| 2026-04-29 19:08 | 19.08871 | 72.86919 | 30 ft | 135 kts | 267° |
| 2026-04-29 19:08 | 19.08860 | 72.86080 | 32 ft | 70 kts | 265° |
| 2026-04-29 19:08 | 19.08864 | 72.85730 | 27 ft | 33 kts | 282° |
| 2026-04-29 19:08 | 19.08918 | 72.85566 | 27 ft | 9 kts | 293° |
| 2026-04-29 19:09 | 19.08922 | 72.85556 | 27 ft | 0 kts | 293° |